Time;durP1;ratioP1;P1;durP2;ratioP2;P2;SDS_P1;SDS_P2;PMS_P1;PMS_P2;Temp;Humidity;BMP_temperature;BMP_pressure;BME280_temperature;BME280_humidity;BME280_pressure;Samples;Min_cycle;Max_cycle;Signal;HPM_P1;HPM_P2
2022/06/08 00:01:46;;;;;;;;;;;21.50;47.40;;;;;;5083635;28;19928;-62
2022/06/08 00:04:13;;;;;;;;;;;21.50;47.40;;;;;;5078938;28;19955;-61
2022/06/08 00:06:40;;;;;;;;;;;21.50;47.40;;;;;;5086795;28;19934;-61
2022/06/08 00:09:06;;;;;;;;;;;21.60;47.50;;;;;;5084202;28;19931;-61
2022/06/08 00:11:33;;;;;;;;;;;21.60;47.50;;;;;;5088595;28;20289;-62
2022/06/08 00:14:00;;;;;;;;;;;21.50;47.40;;;;;;5078025;28;19924;-60
2022/06/08 00:16:27;;;;;;;;;;;21.50;47.30;;;;;;5082294;28;19932;-61
2022/06/08 00:18:55;;;;;;;;;;;21.50;47.30;;;;;;5087108;28;19924;-60
2022/06/08 00:21:22;;;;;;;;;;;21.50;47.40;;;;;;5089404;28;19935;-60
2022/06/08 00:23:49;;;;;;;;;;;21.50;47.30;;;;;;5082404;28;19986;-60
2022/06/08 00:26:16;;;;;;;;;;;21.50;47.30;;;;;;5090620;28;19924;-60
2022/06/08 00:28:43;;;;;;;;;;;21.50;47.30;;;;;;5089414;28;20137;-60
2022/06/08 00:31:10;;;;;;;;;;;21.50;47.40;;;;;;5083301;28;19927;-60
2022/06/08 00:33:37;;;;;;;;;;;21.50;47.30;;;;;;5079962;28;19932;-60
2022/06/08 00:36:06;;;;;;;;;;;21.50;47.30;;;;;;5086606;28;19951;-61
2022/06/08 00:38:33;;;;;;;;;;;21.50;47.30;;;;;;5089147;28;19931;-60
2022/06/08 00:41:06;;;;;;;;;;;21.50;47.30;;;;;;5088029;28;19978;-61
2022/06/08 00:43:33;;;;;;;;;;;21.50;47.30;;;;;;5089998;28;19942;-61
2022/06/08 00:46:00;;;;;;;;;;;21.50;47.30;;;;;;5088963;28;20392;-61
2022/06/08 00:48:27;;;;;;;;;;;21.50;47.30;;;;;;5085213;28;19924;-61
2022/06/08 00:50:54;;;;;;;;;;;21.50;47.30;;;;;;5096006;28;20389;-61
2022/06/08 00:53:23;;;;;;;;;;;21.50;47.30;;;;;;5089452;28;19924;-62
2022/06/08 00:55:50;;;;;;;;;;;21.50;47.20;;;;;;5090511;28;19925;-64
2022/06/08 00:58:18;;;;;;;;;;;21.50;47.30;;;;;;5093539;28;19997;-62
2022/06/08 01:00:46;;;;;;;;;;;21.50;47.30;;;;;;5088759;28;19924;-61
2022/06/08 01:03:13;;;;;;;;;;;21.50;47.30;;;;;;5088082;28;19928;-61
2022/06/08 01:05:40;;;;;;;;;;;21.50;47.30;;;;;;5086526;28;19939;-61
2022/06/08 01:08:13;;;;;;;;;;;21.50;47.30;;;;;;5079045;28;20330;-61
2022/06/08 01:10:42;;;;;;;;;;;21.50;47.20;;;;;;5094172;28;19990;-62
2022/06/08 01:13:09;;;;;;;;;;;21.50;47.30;;;;;;5090594;28;19931;-60
2022/06/08 01:15:36;;;;;;;;;;;21.50;47.20;;;;;;5085196;28;19967;-61
2022/06/08 01:18:03;;;;;;;;;;;21.50;47.30;;;;;;5086372;28;19959;-61
2022/06/08 01:20:30;;;;;;;;;;;21.50;47.20;;;;;;5089717;28;19924;-61
2022/06/08 01:22:59;;;;;;;;;;;21.50;47.20;;;;;;5089638;28;19932;-61
2022/06/08 01:25:26;;;;;;;;;;;21.50;47.20;;;;;;5090104;28;20361;-61
2022/06/08 01:27:56;;;;;;;;;;;21.50;47.20;;;;;;5079684;28;19928;-61
2022/06/08 01:30:24;;;;;;;;;;;21.50;47.20;;;;;;5087855;28;19924;-61
2022/06/08 01:33:08;;;;;;;;;;;21.50;47.20;;;;;;5088233;28;19928;-61
2022/06/08 01:35:37;;;;;;;;;;;21.50;47.20;;;;;;5076497;28;19924;-61
2022/06/08 01:38:08;;;;;;;;;;;21.50;47.20;;;;;;5093788;28;19932;-61
2022/06/08 01:40:41;;;;;;;;;;;21.50;47.10;;;;;;5091060;28;19932;-61
2022/06/08 01:43:13;;;;;;;;;;;21.50;47.20;;;;;;5086743;28;20278;-62
2022/06/08 01:45:44;;;;;;;;;;;21.40;47.10;;;;;;5086971;28;19932;-61
2022/06/08 01:48:15;;;;;;;;;;;21.50;47.10;;;;;;5083649;28;20705;-61
2022/06/08 01:50:47;;;;;;;;;;;21.50;47.10;;;;;;5089191;28;19924;-62
2022/06/08 01:53:17;;;;;;;;;;;21.40;47.00;;;;;;5089087;28;19971;-62
2022/06/08 01:55:46;;;;;;;;;;;21.50;47.10;;;;;;5079723;28;20312;-61
2022/06/08 01:58:13;;;;;;;;;;;21.40;47.00;;;;;;5088708;28;19924;-61
2022/06/08 02:00:41;;;;;;;;;;;21.50;47.10;;;;;;5080930;28;20662;-61
2022/06/08 02:03:09;;;;;;;;;;;21.50;47.10;;;;;;5083677;28;19924;-62
2022/06/08 02:05:39;;;;;;;;;;;21.50;47.10;;;;;;5076909;28;19928;-61
2022/06/08 02:08:06;;;;;;;;;;;21.40;47.00;;;;;;5087008;28;20297;-61
2022/06/08 02:10:37;;;;;;;;;;;21.50;47.00;;;;;;5088742;28;19928;-61
2022/06/08 02:13:04;;;;;;;;;;;21.40;47.00;;;;;;5082723;28;19977;-61
2022/06/08 02:15:32;;;;;;;;;;;21.50;47.00;;;;;;5083645;28;19924;-61
2022/06/08 02:17:59;;;;;;;;;;;21.40;46.90;;;;;;5091598;28;19928;-62
2022/06/08 02:20:27;;;;;;;;;;;21.40;47.00;;;;;;5089131;28;20030;-61
2022/06/08 02:22:55;;;;;;;;;;;21.40;46.90;;;;;;5081372;28;20296;-61
2022/06/08 02:25:22;;;;;;;;;;;21.40;46.90;;;;;;5080433;28;20027;-61
2022/06/08 02:27:51;;;;;;;;;;;21.40;47.00;;;;;;5083942;28;19971;-61
2022/06/08 02:30:18;;;;;;;;;;;21.40;46.90;;;;;;5086901;28;19928;-61
2022/06/08 02:35:40;;;;;;;;;;;21.40;46.90;;;;;;5037324;28;19925;-61
2022/06/08 02:38:08;;;;;;;;;;;21.40;46.90;;;;;;5086264;28;19928;-61
2022/06/08 02:40:36;;;;;;;;;;;21.40;46.90;;;;;;5087571;28;19939;-61
2022/06/08 02:43:05;;;;;;;;;;;21.40;46.90;;;;;;5085430;28;19924;-62
2022/06/08 02:45:33;;;;;;;;;;;21.40;46.90;;;;;;5083601;28;19924;-61
2022/06/08 02:48:01;;;;;;;;;;;21.40;46.90;;;;;;5084329;28;19946;-61
2022/06/08 02:50:28;;;;;;;;;;;21.40;46.90;;;;;;5083617;28;20377;-61
2022/06/08 02:53:06;;;;;;;;;;;21.40;46.80;;;;;;5093392;28;19974;-61
2022/06/08 02:55:34;;;;;;;;;;;21.40;46.80;;;;;;5085834;28;19939;-61
2022/06/08 02:58:01;;;;;;;;;;;21.40;46.80;;;;;;5086225;28;19974;-61
2022/06/08 03:00:31;;;;;;;;;;;21.40;46.80;;;;;;5085488;28;19924;-61
2022/06/08 03:02:59;;;;;;;;;;;21.40;46.80;;;;;;5077584;28;19947;-61
2022/06/08 03:05:27;;;;;;;;;;;21.40;46.80;;;;;;5086449;28;19924;-61
2022/06/08 03:07:55;;;;;;;;;;;21.40;46.80;;;;;;5078319;28;19993;-61
2022/06/08 03:10:22;;;;;;;;;;;21.40;46.80;;;;;;5082239;28;20039;-62
2022/06/08 03:12:49;;;;;;;;;;;21.40;46.80;;;;;;5090927;28;19925;-61
2022/06/08 03:15:17;;;;;;;;;;;21.40;46.70;;;;;;5081415;28;19924;-61
2022/06/08 03:17:49;;;;;;;;;;;21.40;46.70;;;;;;5081606;28;19924;-61
2022/06/08 03:20:16;;;;;;;;;;;21.40;46.70;;;;;;5084138;28;19928;-61
2022/06/08 03:22:43;;;;;;;;;;;21.40;46.70;;;;;;5085675;28;20458;-60
2022/06/08 03:25:10;;;;;;;;;;;21.40;46.70;;;;;;5093139;28;19924;-61
2022/06/08 03:27:37;;;;;;;;;;;21.40;46.70;;;;;;5081272;28;19924;-61
2022/06/08 03:30:05;;;;;;;;;;;21.30;46.60;;;;;;5090912;28;19928;-61
2022/06/08 03:32:31;;;;;;;;;;;21.40;46.70;;;;;;5094232;28;20285;-61
2022/06/08 03:35:00;;;;;;;;;;;21.30;46.60;;;;;;5091045;28;19929;-61
2022/06/08 03:37:26;;;;;;;;;;;21.40;46.70;;;;;;5092503;28;19942;-61
2022/06/08 03:39:53;;;;;;;;;;;21.30;46.50;;;;;;5094334;28;19963;-61
2022/06/08 03:42:20;;;;;;;;;;;21.40;46.60;;;;;;5092241;28;19924;-62
2022/06/08 03:44:47;;;;;;;;;;;21.30;46.60;;;;;;5092308;28;19931;-61
2022/06/08 03:47:15;;;;;;;;;;;21.40;46.60;;;;;;5092345;28;19924;-61
2022/06/08 03:49:42;;;;;;;;;;;21.30;46.50;;;;;;5090966;28;19920;-61
2022/06/08 03:52:11;;;;;;;;;;;21.30;46.50;;;;;;5089485;28;19999;-61
2022/06/08 03:54:39;;;;;;;;;;;21.30;46.50;;;;;;5091104;28;20331;-62
2022/06/08 03:57:07;;;;;;;;;;;21.30;46.50;;;;;;5089084;28;19940;-62
2022/06/08 03:59:34;;;;;;;;;;;21.40;46.60;;;;;;5087597;28;19924;-61
2022/06/08 04:02:01;;;;;;;;;;;21.30;46.50;;;;;;5090007;28;19924;-61
2022/06/08 04:04:28;;;;;;;;;;;21.30;46.50;;;;;;5091389;28;19924;-61
2022/06/08 04:06:55;;;;;;;;;;;21.30;46.50;;;;;;5086789;28;19932;-61
2022/06/08 04:09:23;;;;;;;;;;;21.30;46.50;;;;;;5084786;28;20005;-61
2022/06/08 04:11:50;;;;;;;;;;;21.30;46.50;;;;;;5091534;28;19970;-62
2022/06/08 04:14:17;;;;;;;;;;;21.30;46.50;;;;;;5092431;28;19924;-62
2022/06/08 04:16:43;;;;;;;;;;;21.30;46.50;;;;;;5087232;28;19924;-61
2022/06/08 04:19:10;;;;;;;;;;;21.30;46.50;;;;;;5091565;28;20404;-61
2022/06/08 04:21:37;;;;;;;;;;;21.30;46.50;;;;;;5090613;28;20009;-61
2022/06/08 04:24:04;;;;;;;;;;;21.30;46.50;;;;;;5089790;28;19924;-61
2022/06/08 04:26:32;;;;;;;;;;;21.30;47.10;;;;;;5090029;28;19928;-61
2022/06/08 04:28:59;;;;;;;;;;;21.30;46.50;;;;;;5090655;28;20365;-61
2022/06/08 04:31:26;;;;;;;;;;;21.30;46.50;;;;;;5087212;28;20027;-61
2022/06/08 04:33:53;;;;;;;;;;;21.30;46.50;;;;;;5088736;28;19924;-61
2022/06/08 04:36:20;;;;;;;;;;;21.30;46.60;;;;;;5086895;28;19924;-61
2022/06/08 04:38:47;;;;;;;;;;;21.30;46.60;;;;;;5091639;28;19924;-62
2022/06/08 04:41:14;;;;;;;;;;;21.30;46.50;;;;;;5091520;28;19931;-62
2022/06/08 04:43:42;;;;;;;;;;;21.30;46.60;;;;;;5088477;28;19928;-61
2022/06/08 04:46:14;;;;;;;;;;;21.30;46.60;;;;;;5090016;28;19935;-61
2022/06/08 04:48:42;;;;;;;;;;;21.30;46.60;;;;;;5087748;28;19928;-61
2022/06/08 04:51:10;;;;;;;;;;;21.30;46.60;;;;;;5092994;28;19928;-61
2022/06/08 04:53:37;;;;;;;;;;;21.30;46.60;;;;;;5092376;28;20293;-61
2022/06/08 04:56:03;;;;;;;;;;;21.30;47.20;;;;;;5092864;28;20612;-61
2022/06/08 04:58:30;;;;;;;;;;;21.30;46.60;;;;;;5087540;28;19978;-61
2022/06/08 05:00:59;;;;;;;;;;;21.30;46.60;;;;;;5085910;28;19928;-61
2022/06/08 05:03:26;;;;;;;;;;;21.30;46.60;;;;;;5088360;28;20023;-61
2022/06/08 05:05:52;;;;;;;;;;;21.30;46.70;;;;;;5087334;28;19967;-61
2022/06/08 05:08:20;;;;;;;;;;;21.30;46.70;;;;;;5084987;28;20304;-62
2022/06/08 05:10:49;;;;;;;;;;;21.30;46.70;;;;;;5089935;28;19931;-61
2022/06/08 05:13:16;;;;;;;;;;;21.30;46.70;;;;;;5087960;28;19932;-61
2022/06/08 05:15:44;;;;;;;;;;;21.30;46.70;;;;;;5088602;28;19938;-61
2022/06/08 05:18:12;;;;;;;;;;;21.30;46.70;;;;;;5081223;28;20400;-61
2022/06/08 05:20:40;;;;;;;;;;;21.30;46.70;;;;;;5089365;28;19982;-61
2022/06/08 05:23:08;;;;;;;;;;;21.30;46.70;;;;;;5090213;28;19924;-61
2022/06/08 05:25:35;;;;;;;;;;;21.40;46.80;;;;;;5085743;28;19932;-62
2022/06/08 05:28:06;;;;;;;;;;;21.30;46.70;;;;;;5079448;28;19928;-61
2022/06/08 05:30:33;;;;;;;;;;;21.30;46.70;;;;;;5080646;28;19959;-62
2022/06/08 05:33:00;;;;;;;;;;;21.30;46.70;;;;;;5084951;28;19927;-61
2022/06/08 05:35:28;;;;;;;;;;;21.40;46.90;;;;;;5090370;28;20381;-61
2022/06/08 05:37:55;;;;;;;;;;;21.30;46.80;;;;;;5090578;28;19932;-62
2022/06/08 05:40:22;;;;;;;;;;;21.30;46.80;;;;;;5101535;28;19947;-62
2022/06/08 05:42:49;;;;;;;;;;;21.40;46.90;;;;;;5091650;28;20302;-61
2022/06/08 05:45:17;;;;;;;;;;;21.40;46.90;;;;;;5083390;28;19924;-61
2022/06/08 05:47:44;;;;;;;;;;;21.40;46.90;;;;;;5087873;28;20337;-61
2022/06/08 05:50:11;;;;;;;;;;;21.40;46.90;;;;;;5091064;28;19924;-61
2022/06/08 05:52:39;;;;;;;;;;;21.40;46.90;;;;;;5085352;28;19936;-62
2022/06/08 05:55:07;;;;;;;;;;;21.30;46.90;;;;;;5088806;28;19931;-62
2022/06/08 05:57:34;;;;;;;;;;;21.40;47.00;;;;;;5094663;28;20337;-62
2022/06/08 06:00:01;;;;;;;;;;;21.40;47.00;;;;;;5090704;28;19924;-61
2022/06/08 06:02:28;;;;;;;;;;;21.40;47.00;;;;;;5089495;28;19927;-62
2022/06/08 06:04:54;;;;;;;;;;;21.40;47.00;;;;;;5085441;28;19924;-62
2022/06/08 06:07:21;;;;;;;;;;;21.40;47.00;;;;;;5085225;28;19925;-62
2022/06/08 06:09:49;;;;;;;;;;;21.30;46.90;;;;;;5089195;28;20431;-61
2022/06/08 06:12:16;;;;;;;;;;;21.40;47.00;;;;;;5088826;28;20345;-62
2022/06/08 06:14:43;;;;;;;;;;;21.40;47.00;;;;;;5089533;28;19932;-62
2022/06/08 06:17:09;;;;;;;;;;;21.40;47.10;;;;;;5086375;28;19931;-63
2022/06/08 06:19:36;;;;;;;;;;;21.30;47.00;;;;;;5088103;28;19924;-62
2022/06/08 06:22:04;;;;;;;;;;;21.40;47.10;;;;;;5089275;28;19994;-62
2022/06/08 06:24:31;;;;;;;;;;;21.40;47.10;;;;;;5087863;28;20394;-62
2022/06/08 06:26:59;;;;;;;;;;;21.40;47.10;;;;;;5087797;28;19924;-61
2022/06/08 06:29:26;;;;;;;;;;;21.40;47.10;;;;;;5091006;28;19928;-62
2022/06/08 06:31:53;;;;;;;;;;;21.40;47.10;;;;;;5088613;28;19924;-62
2022/06/08 06:34:21;;;;;;;;;;;21.40;47.10;;;;;;5078345;28;19975;-62
2022/06/08 06:36:48;;;;;;;;;;;21.40;47.10;;;;;;5089594;28;20465;-61
2022/06/08 06:39:15;;;;;;;;;;;21.40;47.10;;;;;;5080549;28;19965;-61
2022/06/08 06:41:42;;;;;;;;;;;21.40;47.10;;;;;;5084449;28;19934;-61
2022/06/08 06:44:10;;;;;;;;;;;21.40;47.10;;;;;;5081173;28;19931;-61
2022/06/08 06:46:37;;;;;;;;;;;21.40;47.10;;;;;;5094374;28;20335;-61
2022/06/08 06:49:04;;;;;;;;;;;21.40;47.20;;;;;;5088894;28;19924;-61
2022/06/08 06:51:30;;;;;;;;;;;21.40;47.20;;;;;;5079876;28;19989;-61
2022/06/08 06:53:57;;;;;;;;;;;21.40;47.20;;;;;;5089828;28;20382;-61
2022/06/08 06:56:24;;;;;;;;;;;21.40;47.20;;;;;;5079169;28;19957;-61
2022/06/08 06:58:51;;;;;;;;;;;21.40;47.20;;;;;;5080703;28;20348;-61
2022/06/08 07:01:19;;;;;;;;;;;21.40;47.20;;;;;;5081736;28;19959;-61
2022/06/08 07:03:45;;;;;;;;;;;21.40;47.20;;;;;;5085928;28;19978;-62
2022/06/08 07:06:12;;;;;;;;;;;21.40;47.20;;;;;;5079269;28;19928;-68
2022/06/08 07:08:39;;;;;;;;;;;21.40;47.30;;;;;;5083117;28;20053;-69
2022/06/08 07:14:02;;;;;;;;;;;21.40;47.40;;;;;;5029320;28;19936;-61
2022/06/08 07:16:30;;;;;;;;;;;21.40;47.40;;;;;;5074872;28;19925;-61
2022/06/08 07:18:57;;;;;;;;;;;21.40;47.40;;;;;;5083341;28;20506;-68
2022/06/08 07:21:24;;;;;;;;;;;21.40;47.40;;;;;;5085030;28;19932;-67
2022/06/08 07:23:51;;;;;;;;;;;21.40;47.50;;;;;;5082728;28;19939;-66
2022/06/08 07:26:18;;;;;;;;;;;21.40;47.50;;;;;;5087868;28;20391;-67
2022/06/08 07:28:45;;;;;;;;;;;21.50;47.70;;;;;;5086996;28;19932;-67
2022/06/08 07:31:12;;;;;;;;;;;21.50;47.70;;;;;;5088779;28;19997;-67
2022/06/08 07:33:40;;;;;;;;;;;21.50;47.80;;;;;;5084351;28;19925;-67
2022/06/08 07:36:07;;;;;;;;;;;21.50;47.80;;;;;;5087365;28;19970;-68
2022/06/08 07:38:35;;;;;;;;;;;21.50;47.80;;;;;;5083679;28;19936;-67
2022/06/08 07:41:01;;;;;;;;;;;21.50;47.90;;;;;;5089286;28;19931;-67
2022/06/08 07:43:28;;;;;;;;;;;21.50;47.90;;;;;;5084823;28;19977;-68
2022/06/08 07:45:56;;;;;;;;;;;21.50;48.00;;;;;;5095761;28;19935;-66
2022/06/08 07:51:08;;;;;;;;;;;21.60;48.10;;;;;;5076741;28;19952;-68
2022/06/08 07:53:35;;;;;;;;;;;21.60;48.20;;;;;;5097627;28;19924;-66
2022/06/08 07:56:02;;;;;;;;;;;21.60;48.20;;;;;;5082296;28;19924;-68
2022/06/08 07:58:29;;;;;;;;;;;21.60;48.20;;;;;;5088065;28;20267;-68
2022/06/08 08:00:57;;;;;;;;;;;21.60;48.20;;;;;;5092199;28;19924;-67
2022/06/08 08:03:23;;;;;;;;;;;21.60;48.20;;;;;;5088326;28;20341;-67
2022/06/08 08:05:50;;;;;;;;;;;21.60;48.10;;;;;;5084821;28;19925;-67
2022/06/08 08:08:19;;;;;;;;;;;21.60;48.20;;;;;;5085795;28;19924;-69
2022/06/08 08:10:46;;;;;;;;;;;21.60;48.20;;;;;;5089644;28;19935;-67
2022/06/08 08:13:13;;;;;;;;;;;21.60;48.20;;;;;;5092820;28;19928;-67
2022/06/08 08:15:39;;;;;;;;;;;21.60;48.20;;;;;;5082549;28;19924;-68
2022/06/08 08:18:07;;;;;;;;;;;21.60;48.30;;;;;;5084173;28;19972;-67
2022/06/08 08:20:34;;;;;;;;;;;21.70;48.30;;;;;;5087577;28;20367;-67
2022/06/08 08:23:00;;;;;;;;;;;21.70;48.30;;;;;;5086559;28;19955;-67
2022/06/08 08:25:29;;;;;;;;;;;21.70;48.30;;;;;;5089213;28;19956;-65
2022/06/08 08:27:55;;;;;;;;;;;21.70;48.30;;;;;;5083538;28;19978;-67
2022/06/08 08:30:23;;;;;;;;;;;21.70;48.30;;;;;;5082387;28;19932;-67
2022/06/08 08:32:50;;;;;;;;;;;21.70;49.00;;;;;;5083828;28;19924;-73
2022/06/08 08:35:17;;;;;;;;;;;21.70;48.40;;;;;;5082700;28;19924;-61
2022/06/08 08:37:44;;;;;;;;;;;21.70;48.40;;;;;;5082911;28;20473;-68
2022/06/08 08:40:15;;;;;;;;;;;21.70;48.40;;;;;;5087595;28;20434;-68
2022/06/08 08:42:43;;;;;;;;;;;21.70;48.40;;;;;;5084675;28;19928;-71
2022/06/08 08:45:12;;;;;;;;;;;21.70;48.50;;;;;;5085754;28;19928;-68
2022/06/08 08:47:42;;;;;;;;;;;21.70;48.40;;;;;;5101313;28;19924;-71
2022/06/08 08:50:15;;;;;;;;;;;21.70;48.50;;;;;;5085005;28;19935;-71
2022/06/08 08:52:43;;;;;;;;;;;21.70;48.50;;;;;;5081900;28;19970;-72
2022/06/08 08:55:16;;;;;;;;;;;21.70;48.40;;;;;;5092494;28;19925;-70
2022/06/08 08:57:45;;;;;;;;;;;21.70;48.50;;;;;;5091100;28;19924;-69
2022/06/08 09:00:15;;;;;;;;;;;21.70;48.50;;;;;;5089013;28;19947;-69
2022/06/08 09:05:27;;;;;;;;;;;21.80;48.60;;;;;;5082006;28;19950;-62
2022/06/08 09:07:56;;;;;;;;;;;21.80;48.60;;;;;;5087975;28;19970;-66
2022/06/08 09:10:24;;;;;;;;;;;21.80;48.60;;;;;;5087691;28;19932;-68
2022/06/08 09:12:55;;;;;;;;;;;21.80;48.70;;;;;;5084093;28;19932;-66
2022/06/08 09:15:37;;;;;;;;;;;21.80;48.60;;;;;;5090127;28;19934;-66
2022/06/08 09:18:05;;;;;;;;;;;21.80;48.60;;;;;;5082973;28;19978;-64
2022/06/08 09:20:33;;;;;;;;;;;21.80;48.70;;;;;;5096986;28;19928;-68
2022/06/08 09:23:01;;;;;;;;;;;21.80;48.60;;;;;;5084839;28;19931;-65
2022/06/08 09:25:29;;;;;;;;;;;21.80;48.60;;;;;;5081690;28;19963;-65
2022/06/08 09:27:58;;;;;;;;;;;21.90;48.70;;;;;;5079171;28;19924;-65
2022/06/08 09:30:25;;;;;;;;;;;21.90;48.70;;;;;;5087729;28;19977;-66
2022/06/08 09:32:52;;;;;;;;;;;21.80;48.60;;;;;;5090611;28;20514;-66
2022/06/08 09:35:21;;;;;;;;;;;21.90;48.70;;;;;;5086380;28;19931;-65
2022/06/08 09:37:48;;;;;;;;;;;21.90;48.70;;;;;;5082426;28;19939;-66
2022/06/08 09:40:36;;;;;;;;;;;21.90;48.70;;;;;;5073964;28;20024;-66
2022/06/08 09:43:07;;;;;;;;;;;21.90;48.70;;;;;;5082742;28;19934;-67
2022/06/08 09:45:39;;;;;;;;;;;21.90;48.80;;;;;;5089529;28;19947;-60
2022/06/08 09:53:41;;;;;;;;;;;21.90;48.80;;;;;;5078351;28;19929;-66
2022/06/08 09:56:09;;;;;;;;;;;21.90;48.80;;;;;;5075277;28;19924;-67
2022/06/08 09:58:44;;;;;;;;;;;21.90;48.80;;;;;;5078982;28;19928;-67
2022/06/08 10:01:12;;;;;;;;;;;21.90;48.80;;;;;;5079803;28;19924;-66
2022/06/08 10:04:10;;;;;;;;;;;21.90;48.80;;;;;;5088834;28;19925;-66
2022/06/08 10:06:39;;;;;;;;;;;21.90;48.80;;;;;;5008279;28;19925;-66
2022/06/08 10:09:10;;;;;;;;;;;21.90;48.80;;;;;;5065927;28;19931;-66
2022/06/08 10:11:42;;;;;;;;;;;21.90;48.80;;;;;;5079094;28;19931;-66
2022/06/08 10:14:22;;;;;;;;;;;21.90;48.80;;;;;;5080938;28;19946;-66
2022/06/08 10:16:50;;;;;;;;;;;22.00;48.90;;;;;;5080015;28;20364;-66
2022/06/08 10:19:18;;;;;;;;;;;22.00;48.90;;;;;;5077551;28;19924;-63
2022/06/08 10:21:45;;;;;;;;;;;21.90;48.80;;;;;;5082088;28;19924;-60
2022/06/08 10:24:14;;;;;;;;;;;21.90;48.90;;;;;;5093671;28;20271;-67
2022/06/08 10:26:43;;;;;;;;;;;22.00;49.00;;;;;;5085666;28;20019;-67
2022/06/08 10:29:11;;;;;;;;;;;22.00;49.00;;;;;;5078052;28;20353;-66
2022/06/08 10:31:39;;;;;;;;;;;22.00;49.00;;;;;;5080183;28;20373;-64
2022/06/08 10:34:09;;;;;;;;;;;22.00;49.00;;;;;;5083557;28;19931;-65
2022/06/08 10:36:36;;;;;;;;;;;22.00;49.00;;;;;;5086255;28;19929;-60
2022/06/08 10:39:03;;;;;;;;;;;22.00;49.00;;;;;;5084396;28;19973;-60
2022/06/08 10:44:33;;;;;;;;;;;22.00;49.00;;;;;;5086176;28;19925;-58
2022/06/08 10:47:18;;;;;;;;;;;22.00;49.00;;;;;;5091318;28;19971;-60
2022/06/08 10:49:49;;;;;;;;;;;22.00;49.00;;;;;;5105722;28;20318;-59
2022/06/08 10:52:16;;;;;;;;;;;22.00;49.00;;;;;;5079425;28;20358;-59
2022/06/08 10:54:54;;;;;;;;;;;22.00;49.00;;;;;;5081313;28;19932;-60
2022/06/08 10:57:31;;;;;;;;;;;22.00;49.00;;;;;;5089760;28;19928;-61
2022/06/08 11:00:13;;;;;;;;;;;22.00;49.00;;;;;;5093213;28;19924;-61
2022/06/08 11:02:41;;;;;;;;;;;22.00;49.00;;;;;;5083381;28;20471;-60
2022/06/08 11:05:16;;;;;;;;;;;22.00;49.10;;;;;;5078175;28;20653;-60
2022/06/08 11:08:13;;;;;;;;;;;22.00;49.10;;;;;;5100620;28;19928;-61
2022/06/08 11:10:58;;;;;;;;;;;22.00;49.10;;;;;;5002848;28;19933;-60
2022/06/08 11:13:26;;;;;;;;;;;22.00;49.10;;;;;;5081116;28;19971;-61
2022/06/08 11:15:55;;;;;;;;;;;22.00;49.30;;;;;;5091446;28;19924;-60
2022/06/08 11:18:27;;;;;;;;;;;22.00;49.30;;;;;;5087405;28;19924;-61
2022/06/08 11:21:06;;;;;;;;;;;22.00;49.30;;;;;;5089232;28;19935;-61
2022/06/08 11:23:34;;;;;;;;;;;22.00;49.30;;;;;;5091751;28;19974;-61
2022/06/08 11:26:14;;;;;;;;;;;22.00;49.30;;;;;;5087140;28;19932;-61
2022/06/08 11:28:43;;;;;;;;;;;22.00;49.20;;;;;;5085547;28;19959;-66
2022/06/08 11:31:11;;;;;;;;;;;22.00;49.20;;;;;;5099239;28;20649;-65
2022/06/08 11:33:55;;;;;;;;;;;22.00;49.20;;;;;;5088534;28;20001;-65
2022/06/08 11:36:29;;;;;;;;;;;22.00;49.10;;;;;;5083063;28;19981;-65
2022/06/08 11:38:57;;;;;;;;;;;22.00;49.10;;;;;;5089334;28;19930;-65
2022/06/08 11:41:26;;;;;;;;;;;22.00;49.00;;;;;;5094510;28;19968;-65
2022/06/08 11:43:53;;;;;;;;;;;22.00;49.00;;;;;;5086630;28;19927;-64
2022/06/08 11:46:21;;;;;;;;;;;22.00;48.90;;;;;;5088921;28;20334;-66
2022/06/08 11:48:49;;;;;;;;;;;22.00;48.80;;;;;;5090689;28;19981;-67
2022/06/08 11:51:30;;;;;;;;;;;22.00;48.80;;;;;;5089592;28;20342;-65
2022/06/08 11:53:58;;;;;;;;;;;22.00;48.80;;;;;;5090705;28;20327;-68
2022/06/08 11:56:28;;;;;;;;;;;22.00;48.80;;;;;;5095985;28;19932;-65
2022/06/08 11:58:55;;;;;;;;;;;22.00;48.80;;;;;;5090107;28;19964;-65
2022/06/08 12:01:23;;;;;;;;;;;22.00;48.80;;;;;;5087596;28;19924;-65
2022/06/08 12:03:56;;;;;;;;;;;22.00;48.80;;;;;;5087825;28;20245;-65
2022/06/08 12:06:24;;;;;;;;;;;22.00;48.70;;;;;;5089183;28;19928;-66
2022/06/08 12:08:53;;;;;;;;;;;22.00;48.70;;;;;;5082429;28;20431;-65
2022/06/08 12:11:21;;;;;;;;;;;22.00;48.80;;;;;;5088719;28;20292;-67
2022/06/08 12:13:52;;;;;;;;;;;22.00;48.70;;;;;;5088702;28;19935;-69
2022/06/08 12:16:21;;;;;;;;;;;22.10;48.80;;;;;;5092112;28;20004;-66
2022/06/08 12:18:52;;;;;;;;;;;22.00;48.80;;;;;;5095624;28;20254;-66
2022/06/08 12:21:21;;;;;;;;;;;22.10;48.80;;;;;;5091780;28;19925;-65
2022/06/08 12:23:58;;;;;;;;;;;22.10;48.80;;;;;;5089957;28;19924;-66
2022/06/08 12:26:25;;;;;;;;;;;22.10;48.90;;;;;;5066778;28;20373;-66
2022/06/08 12:29:04;;;;;;;;;;;22.10;48.90;;;;;;5105457;28;19943;-65
2022/06/08 12:31:32;;;;;;;;;;;22.10;48.80;;;;;;5094386;28;20031;-66
2022/06/08 12:34:14;;;;;;;;;;;22.10;48.80;;;;;;5096420;28;19924;-66
2022/06/08 12:36:40;;;;;;;;;;;22.10;48.80;;;;;;5079576;28;19931;-65
2022/06/08 12:39:11;;;;;;;;;;;22.10;48.80;;;;;;5089538;28;19924;-66
2022/06/08 12:41:39;;;;;;;;;;;22.10;48.80;;;;;;5083249;28;20652;-66
2022/06/08 12:44:06;;;;;;;;;;;22.10;48.80;;;;;;5083818;28;19931;-66
2022/06/08 12:46:34;;;;;;;;;;;22.10;48.80;;;;;;5083168;28;20046;-60
2022/06/08 12:49:04;;;;;;;;;;;22.10;48.80;;;;;;5075450;28;19928;-65
2022/06/08 12:51:32;;;;;;;;;;;22.10;48.80;;;;;;5083950;28;20514;-65
2022/06/08 12:54:00;;;;;;;;;;;22.20;48.90;;;;;;5090218;28;20035;-66
2022/06/08 12:56:28;;;;;;;;;;;22.10;48.80;;;;;;5085746;28;19930;-65
2022/06/08 12:58:56;;;;;;;;;;;22.10;48.80;;;;;;5090244;28;19986;-65
2022/06/08 13:01:23;;;;;;;;;;;22.10;48.90;;;;;;5086718;28;19924;-65
2022/06/08 13:03:49;;;;;;;;;;;22.10;48.80;;;;;;5092483;28;20264;-65
2022/06/08 13:06:16;;;;;;;;;;;22.10;48.80;;;;;;5088013;28;19931;-65
2022/06/08 13:08:43;;;;;;;;;;;22.10;48.80;;;;;;5071549;28;20396;-65
2022/06/08 13:11:12;;;;;;;;;;;22.10;48.80;;;;;;5088599;28;20412;-67
2022/06/08 13:13:40;;;;;;;;;;;22.20;48.80;;;;;;5078255;28;20114;-65
2022/06/08 13:16:12;;;;;;;;;;;22.20;48.80;;;;;;5088837;28;20392;-65
2022/06/08 13:18:39;;;;;;;;;;;22.20;48.80;;;;;;5081641;28;19927;-65
2022/06/08 13:21:07;;;;;;;;;;;22.20;48.80;;;;;;5078074;28;20428;-65
2022/06/08 13:23:34;;;;;;;;;;;22.20;48.70;;;;;;5082133;28;20019;-65
2022/06/08 13:26:01;;;;;;;;;;;22.20;48.80;;;;;;5080532;28;19973;-66
2022/06/08 13:28:29;;;;;;;;;;;22.20;48.70;;;;;;5086179;28;20342;-67
2022/06/08 13:30:57;;;;;;;;;;;22.20;48.70;;;;;;5085936;28;19928;-66
2022/06/08 13:36:12;;;;;;;;;;;22.20;48.80;;;;;;5086114;28;19920;-65
2022/06/08 13:38:38;;;;;;;;;;;22.20;48.70;;;;;;5081888;28;19935;-68
2022/06/08 13:41:05;;;;;;;;;;;22.20;48.70;;;;;;5094913;28;20006;-65
2022/06/08 13:43:33;;;;;;;;;;;22.20;48.70;;;;;;5085013;28;20043;-65
2022/06/08 13:46:01;;;;;;;;;;;22.20;49.30;;;;;;5094309;28;20012;-64
2022/06/08 13:48:28;;;;;;;;;;;22.20;48.70;;;;;;5079432;28;20338;-65
2022/06/08 13:50:56;;;;;;;;;;;22.30;48.90;;;;;;5086893;28;19935;-64
2022/06/08 13:53:23;;;;;;;;;;;22.20;48.70;;;;;;5092901;28;20414;-67
2022/06/08 13:55:50;;;;;;;;;;;22.30;48.80;;;;;;5091070;28;19928;-67
2022/06/08 13:58:18;;;;;;;;;;;22.30;48.80;;;;;;5087158;28;20301;-69
2022/06/08 14:00:45;;;;;;;;;;;22.30;48.80;;;;;;5090314;28;20447;-65
2022/06/08 14:03:14;;;;;;;;;;;22.30;48.80;;;;;;5087656;28;19929;-66
2022/06/08 14:13:57;;;;;;;;;;;22.30;48.80;;;;;;5087208;28;20412;-66
2022/06/08 14:16:24;;;;;;;;;;;22.30;48.70;;;;;;5082557;28;19931;-66
2022/06/08 14:18:53;;;;;;;;;;;22.30;48.70;;;;;;5082666;28;19924;-65
2022/06/08 14:21:21;;;;;;;;;;;22.30;48.80;;;;;;5086054;28;19978;-65
2022/06/08 14:23:48;;;;;;;;;;;22.30;48.70;;;;;;5084987;28;19931;-65
2022/06/08 14:26:16;;;;;;;;;;;22.30;48.70;;;;;;5090587;28;19996;-65
2022/06/08 14:28:46;;;;;;;;;;;22.30;48.80;;;;;;5089074;28;19935;-66
2022/06/08 14:31:13;;;;;;;;;;;22.30;48.70;;;;;;5085203;28;20062;-65
2022/06/08 14:33:41;;;;;;;;;;;22.30;48.70;;;;;;5084410;28;19928;-66
2022/06/08 14:36:10;;;;;;;;;;;22.30;48.70;;;;;;5093650;28;19982;-66
2022/06/08 14:38:37;;;;;;;;;;;22.30;48.70;;;;;;5088562;28;19982;-68
2022/06/08 14:41:04;;;;;;;;;;;22.30;48.70;;;;;;5089998;28;19924;-69
2022/06/08 14:43:31;;;;;;;;;;;22.30;48.70;;;;;;5091314;28;19928;-65
2022/06/08 14:45:58;;;;;;;;;;;22.30;48.70;;;;;;5083726;28;19967;-67
2022/06/08 14:48:26;;;;;;;;;;;22.30;48.70;;;;;;5096275;28;20019;-66
2022/06/08 14:50:54;;;;;;;;;;;22.30;48.70;;;;;;5085076;28;19943;-65
2022/06/08 14:53:22;;;;;;;;;;;22.30;48.70;;;;;;5088908;28;20004;-66
2022/06/08 14:58:34;;;;;;;;;;;22.30;48.70;;;;;;5083232;28;19930;-65